<?xml version="1.0" encoding="UTF-8" standalone="no" ?>
<gpx xmlns="http://www.topografix.com/GPX/1/1" xmlns:xsi="http://www.w3.org/2001/XMLSchema-instance" xsi:schemaLocation="http://www.topografix.com/GPX/1/1 http://www.topografix.com/GPX/1/1/gpx.xsd" version="1.1" creator="VisuGPX - https://www.visugpx.com">
  <metadata>
    <name>autour de Hanyay</name>
    <desc><![CDATA[autour de Hantaiy]]></desc>
  </metadata>
  <trk>
    <name><![CDATA[Autour de Hantay]]></name>
    <trkseg>
      <trkpt lat="50.53293" lon="2.86649">
        <ele>21</ele>
        <time>2016-08-29T10:44:00+02:00</time>
      </trkpt>
      <trkpt lat="50.53304" lon="2.86642">
        <ele>21</ele>
        <time>2016-08-29T10:44:05+02:00</time>
      </trkpt>
      <trkpt lat="50.53292" lon="2.86615">
        <ele>21</ele>
        <time>2016-08-29T10:44:10+02:00</time>
      </trkpt>
      <trkpt lat="50.53265" lon="2.86538">
        <ele>22</ele>
        <time>2016-08-29T10:44:15+02:00</time>
      </trkpt>
      <trkpt lat="50.53254" lon="2.86512">
        <ele>23</ele>
        <time>2016-08-29T10:44:20+02:00</time>
      </trkpt>
      <trkpt lat="50.53277" lon="2.86453">
        <ele>23</ele>
        <time>2016-08-29T10:44:25+02:00</time>
      </trkpt>
      <trkpt lat="50.53306" lon="2.86396">
        <ele>23</ele>
        <time>2016-08-29T10:44:30+02:00</time>
      </trkpt>
      <trkpt lat="50.5334" lon="2.86354">
        <ele>24</ele>
        <time>2016-08-29T10:44:35+02:00</time>
      </trkpt>
      <trkpt lat="50.53373" lon="2.86317">
        <ele>25</ele>
        <time>2016-08-29T10:44:40+02:00</time>
      </trkpt>
      <trkpt lat="50.53392" lon="2.86291">
        <ele>24</ele>
        <time>2016-08-29T10:44:45+02:00</time>
      </trkpt>
      <trkpt lat="50.53399" lon="2.8627">
        <ele>24</ele>
        <time>2016-08-29T10:44:50+02:00</time>
      </trkpt>
      <trkpt lat="50.53418" lon="2.86276">
        <ele>24</ele>
        <time>2016-08-29T10:44:55+02:00</time>
      </trkpt>
      <trkpt lat="50.53436" lon="2.86286">
        <ele>24</ele>
        <time>2016-08-29T10:45:00+02:00</time>
      </trkpt>
      <trkpt lat="50.53473" lon="2.86277">
        <ele>24</ele>
        <time>2016-08-29T10:45:05+02:00</time>
      </trkpt>
      <trkpt lat="50.53488" lon="2.86276">
        <ele>24</ele>
        <time>2016-08-29T10:45:10+02:00</time>
      </trkpt>
      <trkpt lat="50.53564" lon="2.86278">
        <ele>22</ele>
        <time>2016-08-29T10:45:15+02:00</time>
      </trkpt>
      <trkpt lat="50.53624" lon="2.86255">
        <ele>22</ele>
        <time>2016-08-29T10:45:20+02:00</time>
      </trkpt>
      <trkpt lat="50.53682" lon="2.86225">
        <ele>22</ele>
        <time>2016-08-29T10:45:25+02:00</time>
      </trkpt>
      <trkpt lat="50.53705" lon="2.86245">
        <ele>22</ele>
        <time>2016-08-29T10:45:30+02:00</time>
      </trkpt>
      <trkpt lat="50.5372" lon="2.86263">
        <ele>21</ele>
        <time>2016-08-29T10:45:35+02:00</time>
      </trkpt>
      <trkpt lat="50.53789" lon="2.86351">
        <ele>22</ele>
        <time>2016-08-29T10:45:40+02:00</time>
      </trkpt>
      <trkpt lat="50.53821" lon="2.86363">
        <ele>23</ele>
        <time>2016-08-29T10:45:45+02:00</time>
      </trkpt>
      <trkpt lat="50.53848" lon="2.86383">
        <ele>23</ele>
        <time>2016-08-29T10:45:50+02:00</time>
      </trkpt>
      <trkpt lat="50.53867" lon="2.86451">
        <ele>22</ele>
        <time>2016-08-29T10:45:55+02:00</time>
      </trkpt>
      <trkpt lat="50.53889" lon="2.86511">
        <ele>21</ele>
        <time>2016-08-29T10:46:00+02:00</time>
      </trkpt>
      <trkpt lat="50.5392" lon="2.86563">
        <ele>22</ele>
        <time>2016-08-29T10:46:05+02:00</time>
      </trkpt>
      <trkpt lat="50.53993" lon="2.86666">
        <ele>22</ele>
        <time>2016-08-29T10:46:10+02:00</time>
      </trkpt>
      <trkpt lat="50.5401" lon="2.86638">
        <ele>22</ele>
        <time>2016-08-29T10:46:15+02:00</time>
      </trkpt>
      <trkpt lat="50.54031" lon="2.86617">
        <ele>21</ele>
        <time>2016-08-29T10:46:20+02:00</time>
      </trkpt>
      <trkpt lat="50.54076" lon="2.86594">
        <ele>20</ele>
        <time>2016-08-29T10:46:25+02:00</time>
      </trkpt>
      <trkpt lat="50.54171" lon="2.86572">
        <ele>21</ele>
        <time>2016-08-29T10:46:30+02:00</time>
      </trkpt>
      <trkpt lat="50.54293" lon="2.86554">
        <ele>21</ele>
        <time>2016-08-29T10:46:35+02:00</time>
      </trkpt>
      <trkpt lat="50.54327" lon="2.86687">
        <ele>21</ele>
        <time>2016-08-29T10:46:40+02:00</time>
      </trkpt>
      <trkpt lat="50.54394" lon="2.86829">
        <ele>21</ele>
        <time>2016-08-29T10:46:45+02:00</time>
      </trkpt>
      <trkpt lat="50.54437" lon="2.86928">
        <ele>21</ele>
        <time>2016-08-29T10:46:50+02:00</time>
      </trkpt>
      <trkpt lat="50.54485" lon="2.87005">
        <ele>22</ele>
        <time>2016-08-29T10:46:55+02:00</time>
      </trkpt>
      <trkpt lat="50.54528" lon="2.87074">
        <ele>23</ele>
        <time>2016-08-29T10:47:00+02:00</time>
      </trkpt>
      <trkpt lat="50.54573" lon="2.87145">
        <ele>22</ele>
        <time>2016-08-29T10:47:05+02:00</time>
      </trkpt>
      <trkpt lat="50.54539" lon="2.87177">
        <ele>22</ele>
        <time>2016-08-29T10:47:10+02:00</time>
      </trkpt>
      <trkpt lat="50.54507" lon="2.87224">
        <ele>23</ele>
        <time>2016-08-29T10:47:15+02:00</time>
      </trkpt>
      <trkpt lat="50.54476" lon="2.87305">
        <ele>23</ele>
        <time>2016-08-29T10:47:20+02:00</time>
      </trkpt>
      <trkpt lat="50.54408" lon="2.87447">
        <ele>23</ele>
        <time>2016-08-29T10:47:25+02:00</time>
      </trkpt>
      <trkpt lat="50.5436" lon="2.87593">
        <ele>22</ele>
        <time>2016-08-29T10:47:30+02:00</time>
      </trkpt>
      <trkpt lat="50.54344" lon="2.87631">
        <ele>21</ele>
        <time>2016-08-29T10:47:35+02:00</time>
      </trkpt>
      <trkpt lat="50.54393" lon="2.87675">
        <ele>21</ele>
        <time>2016-08-29T10:47:40+02:00</time>
      </trkpt>
      <trkpt lat="50.54434" lon="2.87708">
        <ele>21</ele>
        <time>2016-08-29T10:47:45+02:00</time>
      </trkpt>
      <trkpt lat="50.54449" lon="2.87748">
        <ele>21</ele>
        <time>2016-08-29T10:47:50+02:00</time>
      </trkpt>
      <trkpt lat="50.54512" lon="2.87793">
        <ele>21</ele>
        <time>2016-08-29T10:47:55+02:00</time>
      </trkpt>
      <trkpt lat="50.54549" lon="2.87833">
        <ele>19</ele>
        <time>2016-08-29T10:48:00+02:00</time>
      </trkpt>
      <trkpt lat="50.5462" lon="2.87774">
        <ele>20</ele>
        <time>2016-08-29T10:48:05+02:00</time>
      </trkpt>
      <trkpt lat="50.54723" lon="2.87701">
        <ele>20</ele>
        <time>2016-08-29T10:48:10+02:00</time>
      </trkpt>
      <trkpt lat="50.54811" lon="2.87639">
        <ele>20</ele>
        <time>2016-08-29T10:48:15+02:00</time>
      </trkpt>
      <trkpt lat="50.54819" lon="2.87729">
        <ele>21</ele>
        <time>2016-08-29T10:48:20+02:00</time>
      </trkpt>
      <trkpt lat="50.54947" lon="2.88173">
        <ele>19</ele>
        <time>2016-08-29T10:48:25+02:00</time>
      </trkpt>
      <trkpt lat="50.54958" lon="2.88212">
        <ele>19</ele>
        <time>2016-08-29T10:48:30+02:00</time>
      </trkpt>
      <trkpt lat="50.5497" lon="2.88246">
        <ele>19</ele>
        <time>2016-08-29T10:48:35+02:00</time>
      </trkpt>
      <trkpt lat="50.54982" lon="2.88268">
        <ele>20</ele>
        <time>2016-08-29T10:48:40+02:00</time>
      </trkpt>
      <trkpt lat="50.55002" lon="2.88283">
        <ele>20</ele>
        <time>2016-08-29T10:48:45+02:00</time>
      </trkpt>
      <trkpt lat="50.55038" lon="2.88309">
        <ele>20</ele>
        <time>2016-08-29T10:48:50+02:00</time>
      </trkpt>
      <trkpt lat="50.55058" lon="2.88329">
        <ele>20</ele>
        <time>2016-08-29T10:48:55+02:00</time>
      </trkpt>
      <trkpt lat="50.55075" lon="2.8836">
        <ele>20</ele>
        <time>2016-08-29T10:49:00+02:00</time>
      </trkpt>
      <trkpt lat="50.55125" lon="2.88522">
        <ele>20</ele>
        <time>2016-08-29T10:49:05+02:00</time>
      </trkpt>
      <trkpt lat="50.55148" lon="2.88605">
        <ele>20</ele>
        <time>2016-08-29T10:49:10+02:00</time>
      </trkpt>
      <trkpt lat="50.55136" lon="2.88622">
        <ele>20</ele>
        <time>2016-08-29T10:49:15+02:00</time>
      </trkpt>
      <trkpt lat="50.551" lon="2.88651">
        <ele>19</ele>
        <time>2016-08-29T10:49:20+02:00</time>
      </trkpt>
      <trkpt lat="50.55078" lon="2.88665">
        <ele>20</ele>
        <time>2016-08-29T10:49:25+02:00</time>
      </trkpt>
      <trkpt lat="50.55064" lon="2.88686">
        <ele>21</ele>
        <time>2016-08-29T10:49:30+02:00</time>
      </trkpt>
      <trkpt lat="50.55064" lon="2.8871">
        <ele>21</ele>
        <time>2016-08-29T10:49:35+02:00</time>
      </trkpt>
      <trkpt lat="50.55083" lon="2.88768">
        <ele>20</ele>
        <time>2016-08-29T10:49:40+02:00</time>
      </trkpt>
      <trkpt lat="50.55113" lon="2.88831">
        <ele>20</ele>
        <time>2016-08-29T10:49:45+02:00</time>
      </trkpt>
      <trkpt lat="50.55141" lon="2.88884">
        <ele>21</ele>
        <time>2016-08-29T10:49:50+02:00</time>
      </trkpt>
      <trkpt lat="50.5517" lon="2.88902">
        <ele>21</ele>
        <time>2016-08-29T10:49:55+02:00</time>
      </trkpt>
      <trkpt lat="50.55177" lon="2.88911">
        <ele>21</ele>
        <time>2016-08-29T10:50:00+02:00</time>
      </trkpt>
      <trkpt lat="50.55188" lon="2.8894">
        <ele>21</ele>
        <time>2016-08-29T10:50:05+02:00</time>
      </trkpt>
      <trkpt lat="50.55218" lon="2.89026">
        <ele>22</ele>
        <time>2016-08-29T10:50:10+02:00</time>
      </trkpt>
      <trkpt lat="50.55248" lon="2.8912">
        <ele>21</ele>
        <time>2016-08-29T10:50:15+02:00</time>
      </trkpt>
      <trkpt lat="50.55228" lon="2.89133">
        <ele>21</ele>
        <time>2016-08-29T10:50:20+02:00</time>
      </trkpt>
      <trkpt lat="50.55236" lon="2.89168">
        <ele>20</ele>
        <time>2016-08-29T10:50:25+02:00</time>
      </trkpt>
      <trkpt lat="50.55251" lon="2.89217">
        <ele>19</ele>
        <time>2016-08-29T10:50:30+02:00</time>
      </trkpt>
      <trkpt lat="50.55263" lon="2.89272">
        <ele>19</ele>
        <time>2016-08-29T10:50:35+02:00</time>
      </trkpt>
      <trkpt lat="50.55282" lon="2.8933">
        <ele>20</ele>
        <time>2016-08-29T10:50:40+02:00</time>
      </trkpt>
      <trkpt lat="50.55298" lon="2.89418">
        <ele>20</ele>
        <time>2016-08-29T10:50:45+02:00</time>
      </trkpt>
      <trkpt lat="50.55326" lon="2.89511">
        <ele>21</ele>
        <time>2016-08-29T10:50:50+02:00</time>
      </trkpt>
      <trkpt lat="50.55342" lon="2.89577">
        <ele>21</ele>
        <time>2016-08-29T10:50:55+02:00</time>
      </trkpt>
      <trkpt lat="50.55361" lon="2.89651">
        <ele>21</ele>
        <time>2016-08-29T10:51:00+02:00</time>
      </trkpt>
      <trkpt lat="50.55522" lon="2.89544">
        <ele>20</ele>
        <time>2016-08-29T10:51:05+02:00</time>
      </trkpt>
      <trkpt lat="50.55561" lon="2.8969">
        <ele>20</ele>
        <time>2016-08-29T10:51:10+02:00</time>
      </trkpt>
      <trkpt lat="50.55413" lon="2.89756">
        <ele>20</ele>
        <time>2016-08-29T10:51:15+02:00</time>
      </trkpt>
      <trkpt lat="50.55403" lon="2.89781">
        <ele>20</ele>
        <time>2016-08-29T10:51:20+02:00</time>
      </trkpt>
      <trkpt lat="50.55387" lon="2.89945">
        <ele>21</ele>
        <time>2016-08-29T10:51:25+02:00</time>
      </trkpt>
      <trkpt lat="50.55405" lon="2.90139">
        <ele>20</ele>
        <time>2016-08-29T10:51:30+02:00</time>
      </trkpt>
      <trkpt lat="50.55402" lon="2.90227">
        <ele>20</ele>
        <time>2016-08-29T10:51:35+02:00</time>
      </trkpt>
      <trkpt lat="50.55391" lon="2.90269">
        <ele>21</ele>
        <time>2016-08-29T10:51:40+02:00</time>
      </trkpt>
      <trkpt lat="50.5536" lon="2.90316">
        <ele>21</ele>
        <time>2016-08-29T10:51:45+02:00</time>
      </trkpt>
      <trkpt lat="50.55358" lon="2.90359">
        <ele>21</ele>
        <time>2016-08-29T10:51:50+02:00</time>
      </trkpt>
      <trkpt lat="50.55359" lon="2.90402">
        <ele>21</ele>
        <time>2016-08-29T10:51:55+02:00</time>
      </trkpt>
      <trkpt lat="50.55166" lon="2.90423">
        <ele>21</ele>
        <time>2016-08-29T10:52:00+02:00</time>
      </trkpt>
      <trkpt lat="50.54971" lon="2.90441">
        <ele>19</ele>
        <time>2016-08-29T10:52:05+02:00</time>
      </trkpt>
      <trkpt lat="50.5467" lon="2.90468">
        <ele>20</ele>
        <time>2016-08-29T10:52:10+02:00</time>
      </trkpt>
      <trkpt lat="50.54657" lon="2.90456">
        <ele>20</ele>
        <time>2016-08-29T10:52:15+02:00</time>
      </trkpt>
      <trkpt lat="50.54645" lon="2.90421">
        <ele>21</ele>
        <time>2016-08-29T10:52:20+02:00</time>
      </trkpt>
      <trkpt lat="50.546" lon="2.90253">
        <ele>21</ele>
        <time>2016-08-29T10:52:25+02:00</time>
      </trkpt>
      <trkpt lat="50.54533" lon="2.90004">
        <ele>20</ele>
        <time>2016-08-29T10:52:30+02:00</time>
      </trkpt>
      <trkpt lat="50.54425" lon="2.89607">
        <ele>21</ele>
        <time>2016-08-29T10:52:35+02:00</time>
      </trkpt>
      <trkpt lat="50.54396" lon="2.89575">
        <ele>21</ele>
        <time>2016-08-29T10:52:40+02:00</time>
      </trkpt>
      <trkpt lat="50.54361" lon="2.89543">
        <ele>21</ele>
        <time>2016-08-29T10:52:45+02:00</time>
      </trkpt>
      <trkpt lat="50.54237" lon="2.89486">
        <ele>21</ele>
        <time>2016-08-29T10:52:50+02:00</time>
      </trkpt>
      <trkpt lat="50.54175" lon="2.89481">
        <ele>22</ele>
        <time>2016-08-29T10:52:55+02:00</time>
      </trkpt>
      <trkpt lat="50.5413" lon="2.89472">
        <ele>21</ele>
        <time>2016-08-29T10:53:00+02:00</time>
      </trkpt>
      <trkpt lat="50.54067" lon="2.89482">
        <ele>20</ele>
        <time>2016-08-29T10:53:05+02:00</time>
      </trkpt>
      <trkpt lat="50.54023" lon="2.8952">
        <ele>20</ele>
        <time>2016-08-29T10:53:10+02:00</time>
      </trkpt>
      <trkpt lat="50.54007" lon="2.89529">
        <ele>20</ele>
        <time>2016-08-29T10:53:15+02:00</time>
      </trkpt>
      <trkpt lat="50.53989" lon="2.89527">
        <ele>20</ele>
        <time>2016-08-29T10:53:20+02:00</time>
      </trkpt>
      <trkpt lat="50.53969" lon="2.89511">
        <ele>20</ele>
        <time>2016-08-29T10:53:25+02:00</time>
      </trkpt>
      <trkpt lat="50.53914" lon="2.89466">
        <ele>19</ele>
        <time>2016-08-29T10:53:30+02:00</time>
      </trkpt>
      <trkpt lat="50.53906" lon="2.89456">
        <ele>19</ele>
        <time>2016-08-29T10:53:35+02:00</time>
      </trkpt>
      <trkpt lat="50.53895" lon="2.89459">
        <ele>19</ele>
        <time>2016-08-29T10:53:40+02:00</time>
      </trkpt>
      <trkpt lat="50.5388" lon="2.89447">
        <ele>19</ele>
        <time>2016-08-29T10:53:45+02:00</time>
      </trkpt>
      <trkpt lat="50.5386" lon="2.89419">
        <ele>19</ele>
        <time>2016-08-29T10:53:50+02:00</time>
      </trkpt>
      <trkpt lat="50.53788" lon="2.89304">
        <ele>20</ele>
        <time>2016-08-29T10:53:55+02:00</time>
      </trkpt>
      <trkpt lat="50.53772" lon="2.89273">
        <ele>20</ele>
        <time>2016-08-29T10:54:00+02:00</time>
      </trkpt>
      <trkpt lat="50.53773" lon="2.89256">
        <ele>20</ele>
        <time>2016-08-29T10:54:05+02:00</time>
      </trkpt>
      <trkpt lat="50.53778" lon="2.89246">
        <ele>20</ele>
        <time>2016-08-29T10:54:10+02:00</time>
      </trkpt>
      <trkpt lat="50.53793" lon="2.89208">
        <ele>20</ele>
        <time>2016-08-29T10:54:15+02:00</time>
      </trkpt>
      <trkpt lat="50.5371" lon="2.89074">
        <ele>20</ele>
        <time>2016-08-29T10:54:20+02:00</time>
      </trkpt>
      <trkpt lat="50.53663" lon="2.8901">
        <ele>18</ele>
        <time>2016-08-29T10:54:25+02:00</time>
      </trkpt>
      <trkpt lat="50.53593" lon="2.88977">
        <ele>18</ele>
        <time>2016-08-29T10:54:30+02:00</time>
      </trkpt>
      <trkpt lat="50.53542" lon="2.88934">
        <ele>19</ele>
        <time>2016-08-29T10:54:35+02:00</time>
      </trkpt>
      <trkpt lat="50.53308" lon="2.88694">
        <ele>21</ele>
        <time>2016-08-29T10:54:40+02:00</time>
      </trkpt>
      <trkpt lat="50.53268" lon="2.88651">
        <ele>23</ele>
        <time>2016-08-29T10:54:45+02:00</time>
      </trkpt>
      <trkpt lat="50.5325" lon="2.88606">
        <ele>24</ele>
        <time>2016-08-29T10:54:50+02:00</time>
      </trkpt>
      <trkpt lat="50.5325" lon="2.88608">
        <ele>24</ele>
        <time>2016-08-29T10:54:55+02:00</time>
      </trkpt>
      <trkpt lat="50.53249" lon="2.88606">
        <ele>24</ele>
        <time>2016-08-29T10:55:00+02:00</time>
      </trkpt>
      <trkpt lat="50.53249" lon="2.88604">
        <ele>24</ele>
        <time>2016-08-29T10:55:05+02:00</time>
      </trkpt>
      <trkpt lat="50.53054" lon="2.88937">
        <ele>19</ele>
        <time>2016-08-29T10:55:10+02:00</time>
      </trkpt>
      <trkpt lat="50.5298" lon="2.89067">
        <ele>20</ele>
        <time>2016-08-29T10:55:15+02:00</time>
      </trkpt>
      <trkpt lat="50.52964" lon="2.89232">
        <ele>23</ele>
        <time>2016-08-29T10:55:20+02:00</time>
      </trkpt>
      <trkpt lat="50.52918" lon="2.89177">
        <ele>24</ele>
        <time>2016-08-29T10:55:25+02:00</time>
      </trkpt>
      <trkpt lat="50.52867" lon="2.89123">
        <ele>23</ele>
        <time>2016-08-29T10:55:30+02:00</time>
      </trkpt>
      <trkpt lat="50.52767" lon="2.89016">
        <ele>21</ele>
        <time>2016-08-29T10:55:35+02:00</time>
      </trkpt>
      <trkpt lat="50.52714" lon="2.88941">
        <ele>21</ele>
        <time>2016-08-29T10:55:40+02:00</time>
      </trkpt>
      <trkpt lat="50.52681" lon="2.88879">
        <ele>22</ele>
        <time>2016-08-29T10:55:45+02:00</time>
      </trkpt>
      <trkpt lat="50.52646" lon="2.88807">
        <ele>24</ele>
        <time>2016-08-29T10:55:50+02:00</time>
      </trkpt>
      <trkpt lat="50.52609" lon="2.88697">
        <ele>25</ele>
        <time>2016-08-29T10:55:55+02:00</time>
      </trkpt>
      <trkpt lat="50.5259" lon="2.88606">
        <ele>24</ele>
        <time>2016-08-29T10:56:00+02:00</time>
      </trkpt>
      <trkpt lat="50.52581" lon="2.88553">
        <ele>24</ele>
        <time>2016-08-29T10:56:05+02:00</time>
      </trkpt>
      <trkpt lat="50.52574" lon="2.88505">
        <ele>25</ele>
        <time>2016-08-29T10:56:10+02:00</time>
      </trkpt>
      <trkpt lat="50.52569" lon="2.88424">
        <ele>26</ele>
        <time>2016-08-29T10:56:15+02:00</time>
      </trkpt>
      <trkpt lat="50.52568" lon="2.88342">
        <ele>27</ele>
        <time>2016-08-29T10:56:20+02:00</time>
      </trkpt>
      <trkpt lat="50.52584" lon="2.88187">
        <ele>29</ele>
        <time>2016-08-29T10:56:25+02:00</time>
      </trkpt>
      <trkpt lat="50.52628" lon="2.87982">
        <ele>24</ele>
        <time>2016-08-29T10:56:30+02:00</time>
      </trkpt>
      <trkpt lat="50.52657" lon="2.87828">
        <ele>22</ele>
        <time>2016-08-29T10:56:35+02:00</time>
      </trkpt>
      <trkpt lat="50.52685" lon="2.87747">
        <ele>22</ele>
        <time>2016-08-29T10:56:40+02:00</time>
      </trkpt>
      <trkpt lat="50.52705" lon="2.8763">
        <ele>23</ele>
        <time>2016-08-29T10:56:45+02:00</time>
      </trkpt>
      <trkpt lat="50.52937" lon="2.86635">
        <ele>24</ele>
        <time>2016-08-29T10:56:50+02:00</time>
      </trkpt>
      <trkpt lat="50.52981" lon="2.8645">
        <ele>26</ele>
        <time>2016-08-29T10:56:55+02:00</time>
      </trkpt>
      <trkpt lat="50.53009" lon="2.86323">
        <ele>25</ele>
        <time>2016-08-29T10:57:00+02:00</time>
      </trkpt>
      <trkpt lat="50.53017" lon="2.86263">
        <ele>22</ele>
        <time>2016-08-29T10:57:05+02:00</time>
      </trkpt>
      <trkpt lat="50.53025" lon="2.8625">
        <ele>21</ele>
        <time>2016-08-29T10:57:10+02:00</time>
      </trkpt>
      <trkpt lat="50.5303" lon="2.86262">
        <ele>22</ele>
        <time>2016-08-29T10:57:15+02:00</time>
      </trkpt>
      <trkpt lat="50.53038" lon="2.8628">
        <ele>22</ele>
        <time>2016-08-29T10:57:20+02:00</time>
      </trkpt>
      <trkpt lat="50.53039" lon="2.8631">
        <ele>23</ele>
        <time>2016-08-29T10:57:25+02:00</time>
      </trkpt>
      <trkpt lat="50.53051" lon="2.86373">
        <ele>25</ele>
        <time>2016-08-29T10:57:30+02:00</time>
      </trkpt>
      <trkpt lat="50.53072" lon="2.86444">
        <ele>26</ele>
        <time>2016-08-29T10:57:35+02:00</time>
      </trkpt>
      <trkpt lat="50.5314" lon="2.86676">
        <ele>24</ele>
        <time>2016-08-29T10:57:40+02:00</time>
      </trkpt>
      <trkpt lat="50.53153" lon="2.86717">
        <ele>23</ele>
        <time>2016-08-29T10:57:45+02:00</time>
      </trkpt>
      <trkpt lat="50.53161" lon="2.8672">
        <ele>23</ele>
        <time>2016-08-29T10:57:50+02:00</time>
      </trkpt>
      <trkpt lat="50.53166" lon="2.86713">
        <ele>23</ele>
        <time>2016-08-29T10:57:55+02:00</time>
      </trkpt>
      <trkpt lat="50.53202" lon="2.86633">
        <ele>21</ele>
        <time>2016-08-29T10:58:00+02:00</time>
      </trkpt>
      <trkpt lat="50.53214" lon="2.8666">
        <ele>21</ele>
        <time>2016-08-29T10:58:05+02:00</time>
      </trkpt>
      <trkpt lat="50.53227" lon="2.86683">
        <ele>21</ele>
        <time>2016-08-29T10:58:10+02:00</time>
      </trkpt>
      <trkpt lat="50.53249" lon="2.86663">
        <ele>20</ele>
        <time>2016-08-29T10:58:15+02:00</time>
      </trkpt>
      <trkpt lat="50.53277" lon="2.86636">
        <ele>21</ele>
        <time>2016-08-29T10:58:20+02:00</time>
      </trkpt>
      <trkpt lat="50.53287" lon="2.86661">
        <ele>21</ele>
        <time>2016-08-29T10:58:25+02:00</time>
      </trkpt>
      <trkpt lat="50.53293" lon="2.86649">
        <ele>21</ele>
        <time>2016-08-29T10:58:30+02:00</time>
      </trkpt>
    </trkseg>
  </trk>
</gpx>